Plymouth, CT (06782)

6:55 PM EST on March 04, 2015 (GMT -0500)
Near Terryville Fairground | Change Station
CLOSE
Current Station
Personal Weather Station
Location: Terryville, CT
Elevation: 820 ft
Nearby Weather Stations

Elev 820 ft 41.68 °N, 73.03 °W | Updated 4 minutes ago

Mostly Cloudy
Mostly Cloudy
37.0 °F
Feels Like 37 °F
N
1.7
Wind Variable Wind from West

Today
High -- | Low -- °F
--% Chance of Precip.
Yesterday
High -- | Low -- °F
Precip. -- in
6:22 AM 5:45 PM
Waxing Gibbous, 99% visible
Pressure 29.86 in
Visibility 10.0 miles
Clouds Overcast 12000 ft
Windchill 37 °F
Dew Point 34 °F
Humidity 87%
Rainfall 0.56 in
Snow Depth Not available.
UV 0 out of 12
Pollen .50 out of 12
Air Quality Not available.
Flu Activity Not available.
METAR KOXC 042245Z 28006G14KT 10SM OVC120 04/M02 A2986

More Conditions Fewer Conditions

Pressure 29.86 in
Visibility 10.0 miles
Clouds Overcast 12000 ft
Windchill 37 °F
Dew Point 34 °F
Humidity 87%
Rainfall 0.56 in
Snow Depth Not available.
UV 0 out of 12
Pollen .50 out of 12
Air Quality Not available.
Flu Activity Not available.
METAR KOXC 042245Z 28006G14KT 10SM OVC120 04/M02 A2986

More Conditions Fewer Conditions

10-Day Weather Forecast

Almanac

Astronomy

Mar. 04, 2015 Rise Set
Actual Time
Civil Twilight
Nautical Twilight
Astronomical Twilight
Moon
Length of Visible Light
Length of Day
Tomorrow will be .
, % of the Moon is Illuminated

Today's Extremes

State Highs State Lows

Community

WunderPhotos

Upload Photos

1,802,605 photos uploaded!

WunderBlogs® & News

Nearby

Air Quality

  Air Quality AQ Index Pollutant
Not available.

Snow Depth

Station Depth Elevation

Earthquake Activity

City Distance Mag. Time & Date
Minimum magnitude displayed is 2.5.

Coastal Water Temperatures

Place Temperature

Nearby Weather Stations